Goode, Virginia
Current Conditions -  °F | °C
As of 5:54 AM on Friday 19 Dec 2014 (Local Time) from KLYH Reporting Station
Clear Clear  
Wind Chill: -3°   Ceiling: Unl
Heat Index: -3°   Visibility: 10mi
Dew Point: -5°   Wind: 0mph
Humidity: 88%   Direction: NA
Pressure: 30.11"   Gusts: NA
Location:  37.36°N, 79.39°W
Report Text: KLYH 191054Z AUTO 00000KT 10SM CLR M03/M05 A3011 RMK AO2 SLP203 T10331050
Loading
Personal Weather Stations






























Interactive Weather Map New forecast layout! Learn more

10-Day Weather Forecast

Advertisements
Track Severe Weather on mobile